General Aviation Weather

Text Reports

Enter one or more of the following location identifiers separated by a space:

Zip Code, Four-Character ICAO or Three-Character IATA airport codes.

METAR - Aviation Routine Weather Report
KPHN - Port Huron, Michigan
Updated at 10:35 AM GMT on August 01, 2014 (6:35 AM EDT):
METAR KPHN 011035Z AUTO 00000KT 1 1/4SM BR SCT050 12/12 A3007 RMK AO2
TAF - Terminal Area Forecast
KPHN - Port Huron, Michigan
Updated at 10:35 AM GMT on August 01, 2014 (6:35 AM EDT):
No TAF is currently available for this location.
Decoded:
No decoded TAF is available.
PIREP - Pilot Weather Report
KPHN - Port Huron, Michigan
Updated at 10:35 AM GMT on August 01, 2014 (6:35 AM EDT):
No PIREP is currently available for this location.
AIRMET - Airmens Meteorological Information
KPHN - Port Huron, Michigan
Updated at 10:35 AM GMT on August 01, 2014 (6:35 AM EDT):
No AIRMET is currently available for this location.
SIGMET - Significant Meteorological Information
KPHN - Port Huron, Michigan
Updated at 10:35 AM GMT on August 01, 2014 (6:35 AM EDT):
No SIGMET is currently available for this location.
NOTAM - Notice to Airmen
KPHN - Port Huron, Michigan
Updated at 10:35 AM GMT on August 01, 2014 (6:35 AM EDT):
No NOTAM is currently available for this location.
Forecast Area
KPHN - Port Huron, Michigan
Updated at 10:35 AM GMT on August 01, 2014 (6:35 AM EDT):
No NOTAM is currently available for this location.
Aviation Weather Maps